createdAt,value
2019-05-07T00:02:10.704Z,13.23
2019-05-07T00:04:42.800Z,12.87
2019-05-07T00:07:14.774Z,12.10
2019-05-07T00:09:45.501Z,11.20
2019-05-07T00:12:16.279Z,10.60
2019-05-07T00:14:58.112Z,8.63
2019-05-07T00:17:19.405Z,10.73
2019-05-07T00:19:52.427Z,7.07
2019-05-07T00:22:22.866Z,10.23
2019-05-07T00:24:53.756Z,8.80
2019-05-07T00:27:24.649Z,8.47
2019-05-07T00:29:55.386Z,10.97
2019-05-07T00:32:26.169Z,7.40
2019-05-07T00:35:02.539Z,9.50
2019-05-07T00:37:39.193Z,8.63
2019-05-07T00:40:27.577Z,6.27
2019-05-07T00:43:07.692Z,7.07
2019-05-07T00:45:46.825Z,4.97
2019-05-07T00:48:17.599Z,7.30
2019-05-07T00:50:50.209Z,7.97
2019-05-07T00:53:23.490Z,7.83
2019-05-07T00:55:53.745Z,7.23
2019-05-07T00:58:26.833Z,9.70
2019-05-07T01:00:56.875Z,7.77
2019-05-07T01:03:27.659Z,7.40
2019-05-07T01:05:58.497Z,7.37
2019-05-07T01:08:29.318Z,6.10
2019-05-07T01:11:02.263Z,4.87
2019-05-07T01:13:32.760Z,5.00
2019-05-07T01:16:03.617Z,7.63
2019-05-07T01:18:34.493Z,7.03
2019-05-07T01:21:05.227Z,6.60
2019-05-07T01:23:36.101Z,6.47
2019-05-07T01:26:06.864Z,7.97
2019-05-07T01:28:55.131Z,6.67
2019-05-07T01:31:27.753Z,8.80
2019-05-07T01:34:23.105Z,6.47
2019-05-07T01:36:54.012Z,5.67
2019-05-07T01:39:24.783Z,5.57
2019-05-07T01:41:55.554Z,9.57
2019-05-07T01:44:26.324Z,7.70
2019-05-07T01:46:57.057Z,4.07
2019-05-07T01:49:27.861Z,5.37
2019-05-07T01:51:58.638Z,7.03
2019-05-07T01:54:29.378Z,6.70
2019-05-07T01:57:02.632Z,6.93
2019-05-07T01:59:32.959Z,7.10
2019-05-07T02:02:13.577Z,8.67
2019-05-07T02:04:52.161Z,6.27
2019-05-07T02:07:35.730Z,8.87
2019-05-07T02:10:44.317Z,9.43
2019-05-07T02:13:15.156Z,6.53
2019-05-07T02:15:57.400Z,7.13
2019-05-07T02:18:18.372Z,5.73
2019-05-07T02:20:49.215Z,6.80
2019-05-07T02:23:22.078Z,5.67
2019-05-07T02:25:52.710Z,7.50
2019-05-07T02:28:23.639Z,6.57
2019-05-07T02:30:54.446Z,6.80
2019-05-07T02:33:25.180Z,7.70
2019-05-07T02:35:55.957Z,7.80
2019-05-07T02:38:35.949Z,9.40
2019-05-07T02:41:14.075Z,10.47
2019-05-07T02:43:43.853Z,6.67
2019-05-07T02:46:31.602Z,8.00
2019-05-07T02:49:18.781Z,8.87
2019-05-07T02:52:03.820Z,6.63
2019-05-07T02:54:53.894Z,8.87
2019-05-07T02:57:24.273Z,9.13
2019-05-07T02:59:55.101Z,8.00
2019-05-07T03:02:25.881Z,10.30
2019-05-07T03:04:56.633Z,9.77
2019-05-07T03:07:27.508Z,8.93
2019-05-07T03:09:58.775Z,9.77
2019-05-07T03:12:29.624Z,8.90
2019-05-07T03:15:04.073Z,9.70
2019-05-07T03:17:33.585Z,12.60
2019-05-07T03:20:06.705Z,10.13
2019-05-07T03:22:38.303Z,8.00
2019-05-07T03:25:28.027Z,7.03
2019-05-07T03:27:59.815Z,9.07
2019-05-07T03:30:56.846Z,12.13
2019-05-07T03:33:38.959Z,11.60
2019-05-07T03:36:15.852Z,11.17
2019-05-07T03:38:43.963Z,11.17
2019-05-07T03:41:27.409Z,7.40
2019-05-07T03:44:27.658Z,11.60
2019-05-07T03:47:15.891Z,8.33
2019-05-07T03:49:47.091Z,11.90
2019-05-07T03:52:17.941Z,7.27
2019-05-07T03:54:49.209Z,13.10
2019-05-07T03:57:23.467Z,10.50
2019-05-07T03:59:53.497Z,11.90
2019-05-07T04:02:24.576Z,16.47
2019-05-07T04:04:55.615Z,11.03
2019-05-07T04:07:26.579Z,9.47
2019-05-07T04:09:57.471Z,11.20
2019-05-07T04:12:28.306Z,11.10
2019-05-07T04:14:59.218Z,13.73
2019-05-07T04:17:33.561Z,10.27
2019-05-07T04:20:04.542Z,12.33
2019-05-07T04:22:35.086Z,9.77
2019-05-07T04:25:24.466Z,10.23
2019-05-07T04:28:04.805Z,9.13
2019-05-07T04:30:36.324Z,10.43
2019-05-07T04:33:08.861Z,9.80
2019-05-07T04:35:44.875Z,10.60
2019-05-07T04:38:15.770Z,10.47
2019-05-07T04:40:46.579Z,8.97
2019-05-07T04:43:17.478Z,7.70
2019-05-07T04:45:48.345Z,10.67
2019-05-07T04:48:19.209Z,8.00
2019-05-07T04:50:54.165Z,6.33
2019-05-07T04:53:24.546Z,9.67
2019-05-07T04:55:55.363Z,8.43
2019-05-07T04:58:26.673Z,9.27
2019-05-07T05:00:57.910Z,7.77
2019-05-07T05:03:33.970Z,6.77
2019-05-07T05:06:03.549Z,9.50
2019-05-07T05:08:34.325Z,10.10
2019-05-07T05:11:05.255Z,7.10
2019-05-07T05:13:36.082Z,9.57
2019-05-07T05:16:26.116Z,12.40
2019-05-07T05:18:58.537Z,8.73
2019-05-07T05:21:42.047Z,8.87
2019-05-07T05:24:27.600Z,9.17
2019-05-07T05:26:58.697Z,8.73
2019-05-07T05:29:32.165Z,8.20
2019-05-07T05:32:03.093Z,8.00
2019-05-07T05:34:34.295Z,7.83
2019-05-07T05:37:06.078Z,8.23
2019-05-07T05:39:36.866Z,8.63
2019-05-07T05:42:35.513Z,7.53
2019-05-07T05:45:09.563Z,10.07
2019-05-07T05:47:44.409Z,9.07
2019-05-07T05:50:13.791Z,7.83
2019-05-07T05:52:52.024Z,7.63
2019-05-07T05:55:23.026Z,7.47
2019-05-07T05:58:12.260Z,9.67
2019-05-07T06:01:14.403Z,11.93
2019-05-07T06:07:11.381Z,9.33
2019-05-07T06:09:58.628Z,5.53
2019-05-07T06:12:48.724Z,5.93
2019-05-07T06:19:12.953Z,9.57
2019-05-07T06:22:02.107Z,6.17
2019-05-07T06:25:10.120Z,5.93
2019-05-07T06:27:41.775Z,3.77
2019-05-07T06:30:13.219Z,7.43
2019-05-07T06:32:44.125Z,6.23
2019-05-07T06:35:15.416Z,6.97
2019-05-07T06:37:47.092Z,4.67
2019-05-07T06:40:35.620Z,4.47
2019-05-07T06:43:12.939Z,7.03
2019-05-07T06:45:47.653Z,8.90
2019-05-07T06:48:33.597Z,9.53
2019-05-07T06:51:00.081Z,6.20
2019-05-07T06:53:33.435Z,8.33
2019-05-07T06:56:05.921Z,7.07
2019-05-07T06:59:02.271Z,6.03
2019-05-07T07:01:44.542Z,4.23
2019-05-07T07:04:42.246Z,5.07
2019-05-07T07:07:34.736Z,7.20
2019-05-07T07:10:36.693Z,8.13
2019-05-07T07:13:07.604Z,7.47
2019-05-07T07:15:38.523Z,6.77
2019-05-07T07:18:09.551Z,8.23
2019-05-07T07:20:42.473Z,6.37
2019-05-07T07:23:12.994Z,4.80
2019-05-07T07:25:43.715Z,6.07
2019-05-07T07:28:14.619Z,6.10
2019-05-07T07:31:13.114Z,6.10
2019-05-07T07:33:44.508Z,5.37
2019-05-07T07:36:15.376Z,5.60
2019-05-07T07:38:49.020Z,5.83
2019-05-07T07:41:44.767Z,8.03
2019-05-07T07:44:15.856Z,6.17
2019-05-07T07:46:47.670Z,5.70
2019-05-07T07:49:18.594Z,6.00
2019-05-07T07:51:49.584Z,6.20
2019-05-07T07:54:22.695Z,6.87
2019-05-07T07:57:14.422Z,6.17
2019-05-07T07:59:52.883Z,7.67
2019-05-07T08:02:29.576Z,7.33
2019-05-07T08:05:02.127Z,7.87
2019-05-07T08:07:34.374Z,5.80
2019-05-07T08:10:06.736Z,4.30
2019-05-07T08:12:37.516Z,7.27
2019-05-07T08:15:16.757Z,6.17
2019-05-07T08:17:42.383Z,4.23
2019-05-07T08:20:13.716Z,5.17
2019-05-07T08:22:44.478Z,4.30
2019-05-07T08:25:15.606Z,5.43
2019-05-07T08:27:47.436Z,3.83
2019-05-07T08:30:22.368Z,4.83
2019-05-07T08:32:57.845Z,5.97
2019-05-07T08:35:38.797Z,2.80
2019-05-07T08:38:09.708Z,5.20
2019-05-07T08:40:41.874Z,4.83
2019-05-07T08:43:12.835Z,6.40
2019-05-07T08:46:12.046Z,4.53
2019-05-07T08:48:48.592Z,5.03
2019-05-07T08:51:19.368Z,4.13
2019-05-07T08:54:06.766Z,4.07
2019-05-07T08:56:38.734Z,4.77
2019-05-07T08:59:12.435Z,5.03
2019-05-07T09:01:43.720Z,6.57
2019-05-07T09:04:14.449Z,7.07
2019-05-07T09:06:46.321Z,5.60
2019-05-07T09:09:17.195Z,6.33
2019-05-07T09:11:48.054Z,4.43
2019-05-07T09:14:18.918Z,3.50
2019-05-07T09:16:52.718Z,4.93
2019-05-07T09:19:23.558Z,6.00
2019-05-07T09:21:57.366Z,5.63
2019-05-07T09:24:28.455Z,5.87
2019-05-07T09:27:27.417Z,5.10
2019-05-07T09:30:16.256Z,3.83
2019-05-07T09:32:52.161Z,5.77
2019-05-07T09:35:26.765Z,4.03
2019-05-07T09:37:57.521Z,8.83
2019-05-07T09:40:28.428Z,6.40
2019-05-07T09:42:59.318Z,6.17
2019-05-07T09:45:30.085Z,6.17
2019-05-07T09:48:02.886Z,7.60
2019-05-07T09:50:33.392Z,6.27
2019-05-07T09:53:04.314Z,4.70
2019-05-07T09:55:35.058Z,7.20
2019-05-07T09:58:06.180Z,7.17
2019-05-07T10:00:37.477Z,8.47
2019-05-07T10:03:08.740Z,5.80
2019-05-07T10:05:39.561Z,14.70
2019-05-07T10:08:12.674Z,5.17
2019-05-07T10:10:44.390Z,5.57
2019-05-07T10:13:42.034Z,6.30
2019-05-07T10:16:15.073Z,8.50
2019-05-07T10:18:46.150Z,6.17
2019-05-07T10:21:17.086Z,5.77
2019-05-07T10:23:48.128Z,4.77
2019-05-07T10:26:19.323Z,4.10
2019-05-07T10:28:50.412Z,6.17
2019-05-07T10:31:22.314Z,7.37
2019-05-07T10:33:53.344Z,4.40
2019-05-07T10:36:24.477Z,3.37
2019-05-07T10:38:55.527Z,5.50
2019-05-07T10:41:26.832Z,3.77
2019-05-07T10:43:58.108Z,3.83
2019-05-07T10:46:42.255Z,4.70
2019-05-07T10:49:17.030Z,5.07
2019-05-07T10:51:48.225Z,6.90
2019-05-07T10:54:19.466Z,4.87
2019-05-07T10:56:52.325Z,5.87
2019-05-07T10:59:22.995Z,8.20
2019-05-07T11:02:15.824Z,4.87
2019-05-07T11:04:46.842Z,6.27
2019-05-07T11:07:17.648Z,6.27
2019-05-07T11:09:48.688Z,8.73
2019-05-07T11:12:19.428Z,4.90
2019-05-07T11:14:51.674Z,4.80
2019-05-07T11:17:41.912Z,6.93
2019-05-07T11:20:14.340Z,5.23
2019-05-07T11:22:45.055Z,3.80
2019-05-07T11:25:16.068Z,4.43
2019-05-07T11:27:47.015Z,4.67
2019-05-07T11:30:18.142Z,4.57
2019-05-07T11:32:48.995Z,4.90
2019-05-07T11:35:22.741Z,4.80
2019-05-07T11:37:52.839Z,4.47
2019-05-07T11:40:23.907Z,5.70
2019-05-07T11:43:15.400Z,6.30
2019-05-07T11:45:58.923Z,7.87
2019-05-07T11:48:29.604Z,5.80
2019-05-07T11:51:33.282Z,4.67
2019-05-07T11:54:12.667Z,3.53
2019-05-07T11:56:43.358Z,4.83
2019-05-07T11:59:14.198Z,6.30
2019-05-07T12:01:48.750Z,9.70
2019-05-07T12:04:19.615Z,5.80
2019-05-07T12:06:52.073Z,6.50
2019-05-07T12:09:23.087Z,7.20
2019-05-07T12:11:54.198Z,4.93
2019-05-07T12:14:31.422Z,5.53
2019-05-07T12:16:57.646Z,4.33
2019-05-07T12:19:28.469Z,4.03
2019-05-07T12:21:59.748Z,4.90
2019-05-07T12:24:32.706Z,4.70
2019-05-07T12:27:03.030Z,6.73
2019-05-07T12:29:33.796Z,8.53
2019-05-07T12:32:23.572Z,7.00
2019-05-07T12:35:02.277Z,5.90
2019-05-07T12:37:34.491Z,3.87
2019-05-07T12:40:06.257Z,4.03
2019-05-07T12:42:37.325Z,7.03
2019-05-07T12:45:08.593Z,5.93
2019-05-07T12:47:39.555Z,2.70
2019-05-07T12:50:10.527Z,9.40
2019-05-07T12:52:50.292Z,3.90
2019-05-07T12:55:34.885Z,4.60
2019-05-07T12:58:06.512Z,6.73
2019-05-07T13:00:58.871Z,5.50
2019-05-07T13:03:57.886Z,4.63
2019-05-07T13:06:28.889Z,4.77
2019-05-07T13:09:00.934Z,6.23
2019-05-07T13:11:33.315Z,3.23
2019-05-07T13:14:04.685Z,6.00
2019-05-07T13:16:36.092Z,5.90
2019-05-07T13:19:09.952Z,5.03
2019-05-07T13:21:49.062Z,3.27
2019-05-07T13:24:16.672Z,3.87
2019-05-07T13:26:49.073Z,6.87
2019-05-07T13:29:26.367Z,4.80
2019-05-07T13:32:02.761Z,4.90
2019-05-07T13:34:34.317Z,5.47
2019-05-07T13:37:12.839Z,6.47
2019-05-07T13:39:52.018Z,4.40
2019-05-07T13:42:44.899Z,8.53
2019-05-07T13:45:31.630Z,6.23
2019-05-07T13:48:22.629Z,3.97
2019-05-07T13:50:54.042Z,4.03
2019-05-07T13:53:25.887Z,3.83
2019-05-07T13:56:02.443Z,4.00
2019-05-07T13:58:34.692Z,6.10
2019-05-07T14:01:23.401Z,3.57
2019-05-07T14:03:55.281Z,2.77
2019-05-07T14:06:45.464Z,2.47
2019-05-07T14:09:24.204Z,4.63
2019-05-07T14:11:55.560Z,5.87
2019-05-07T14:14:28.598Z,3.83
2019-05-07T14:17:02.348Z,4.70
2019-05-07T14:19:34.223Z,2.53
2019-05-07T14:22:15.241Z,4.13
2019-05-07T14:24:42.168Z,6.30
2019-05-07T14:27:13.676Z,6.30
2019-05-07T14:29:45.493Z,3.70
2019-05-07T14:32:48.727Z,7.40
2019-05-07T14:35:44.769Z,7.47
2019-05-07T14:38:22.637Z,5.90
2019-05-07T14:40:54.182Z,3.17
2019-05-07T14:43:41.765Z,3.20
2019-05-07T14:46:13.440Z,3.93
2019-05-07T14:48:45.821Z,6.00
2019-05-07T14:51:17.463Z,6.20
2019-05-07T14:53:49.141Z,5.17
2019-05-07T14:56:23.197Z,7.70
2019-05-07T14:58:54.863Z,6.37
2019-05-07T15:01:26.823Z,4.10
2019-05-07T15:04:02.169Z,3.70
2019-05-07T15:06:34.733Z,6.80
2019-05-07T15:09:13.729Z,9.03
2019-05-07T15:11:52.588Z,3.30
2019-05-07T15:14:24.793Z,5.60
2019-05-07T15:17:03.491Z,4.13
2019-05-07T15:19:35.710Z,4.70
2019-05-07T15:22:46.120Z,2.67
2019-05-07T15:25:07.381Z,4.67
2019-05-07T15:27:38.729Z,5.67
2019-05-07T15:30:10.340Z,3.50
2019-05-07T15:32:42.782Z,8.43
2019-05-07T15:35:13.976Z,10.53
2019-05-07T15:37:44.934Z,2.93
2019-05-07T15:40:16.094Z,2.37
2019-05-07T15:42:46.911Z,5.30
2019-05-07T15:45:29.490Z,5.43
2019-05-07T15:48:02.076Z,12.53
2019-05-07T15:50:32.807Z,5.07
2019-05-07T15:53:12.263Z,3.57
2019-05-07T15:55:43.564Z,4.53
2019-05-07T15:58:15.164Z,5.07
2019-05-07T16:00:46.870Z,4.37
2019-05-07T16:03:29.051Z,5.20
2019-05-07T16:06:03.576Z,5.37
2019-05-07T16:08:36.018Z,3.33
2019-05-07T16:11:07.359Z,9.77
2019-05-07T16:13:42.055Z,7.53
2019-05-07T16:16:13.519Z,4.67
2019-05-07T16:19:09.604Z,4.70
2019-05-07T16:21:42.556Z,5.97
2019-05-07T16:24:13.358Z,4.53
2019-05-07T16:26:44.615Z,5.77
2019-05-07T16:29:15.572Z,4.10
2019-05-07T16:31:48.751Z,4.03
2019-05-07T16:34:21.595Z,6.33
2019-05-07T16:36:52.075Z,40.40
2019-05-07T16:39:23.546Z,3.83
2019-05-07T16:41:54.752Z,8.87
2019-05-07T16:44:26.246Z,7.60
2019-05-07T16:46:57.947Z,7.37
2019-05-07T16:49:29.384Z,4.67
2019-05-07T16:52:01.809Z,3.63
2019-05-07T16:54:33.474Z,8.33
2019-05-07T16:57:25.001Z,10.27
2019-05-07T16:59:56.585Z,4.57
2019-05-07T17:02:33.657Z,4.23
2019-05-07T17:05:12.136Z,4.57
2019-05-07T17:07:52.113Z,4.33
2019-05-07T17:10:25.184Z,6.33
2019-05-07T17:12:56.800Z,8.33
2019-05-07T17:15:28.768Z,7.27
2019-05-07T17:18:02.554Z,11.17
2019-05-07T17:20:40.006Z,3.17
2019-05-07T17:23:11.913Z,6.60
2019-05-07T17:25:57.639Z,7.03
2019-05-07T17:28:32.086Z,5.50
2019-05-07T17:31:04.673Z,8.33
2019-05-07T17:33:36.466Z,8.97
2019-05-07T17:36:12.089Z,7.73
2019-05-07T17:38:43.439Z,8.43
2019-05-07T17:41:27.054Z,5.53
2019-05-07T17:43:57.689Z,9.33
2019-05-07T17:46:28.997Z,6.63
2019-05-07T17:48:59.874Z,11.20
2019-05-07T17:51:43.678Z,12.63
2019-05-07T17:54:15.336Z,26.10
2019-05-07T17:56:46.334Z,10.63
2019-05-07T17:59:17.447Z,11.03
2019-05-07T18:02:10.125Z,15.77
2019-05-07T18:04:50.923Z,11.73
2019-05-07T18:07:16.226Z,8.17
2019-05-07T18:09:47.541Z,8.10
2019-05-07T18:12:22.355Z,8.73
2019-05-07T18:14:52.955Z,11.43
2019-05-07T18:17:43.022Z,5.83
2019-05-07T18:20:14.213Z,10.47
2019-05-07T18:22:45.369Z,9.47
2019-05-07T18:25:16.644Z,7.23
2019-05-07T18:27:49.055Z,6.77
2019-05-07T18:30:22.067Z,6.80
2019-05-07T18:32:59.781Z,6.93
2019-05-07T18:35:32.136Z,6.90
2019-05-07T18:38:03.469Z,7.83
2019-05-07T18:40:34.561Z,3.90
2019-05-07T18:43:05.918Z,6.90
2019-05-07T18:45:37.007Z,7.37
2019-05-07T18:48:09.330Z,9.77
2019-05-07T18:50:41.972Z,6.10
2019-05-07T18:53:13.231Z,7.97
2019-05-07T18:55:44.825Z,6.87
2019-05-07T18:58:15.968Z,9.00
2019-05-07T19:00:52.311Z,7.07
2019-05-07T19:03:25.377Z,8.87
2019-05-07T19:05:56.778Z,8.27
2019-05-07T19:08:28.032Z,10.03
2019-05-07T19:10:59.346Z,10.97
2019-05-07T19:13:32.473Z,9.33
2019-05-07T19:16:04.146Z,10.33
2019-05-07T19:18:35.403Z,11.13
2019-05-07T19:21:07.031Z,15.50
2019-05-07T19:23:38.285Z,20.10
2019-05-07T19:26:12.836Z,26.43
2019-05-07T19:28:43.259Z,29.03
2019-05-07T19:31:14.594Z,23.57
2019-05-07T19:33:46.176Z,23.47
2019-05-07T19:36:17.657Z,27.93
2019-05-07T19:38:48.729Z,29.57
2019-05-07T19:41:19.892Z,30.87
2019-05-07T19:43:52.763Z,32.83
2019-05-07T19:46:24.620Z,33.57
2019-05-07T19:48:56.301Z,27.90
2019-05-07T19:51:27.292Z,22.77
2019-05-07T19:53:58.258Z,21.97
2019-05-07T19:56:32.250Z,23.87
2019-05-07T19:59:03.119Z,32.33
2019-05-07T20:01:43.391Z,37.00
2019-05-07T20:04:15.006Z,49.63
2019-05-07T20:06:46.797Z,38.97
2019-05-07T20:09:20.531Z,42.70
2019-05-07T20:11:52.332Z,30.60
2019-05-07T20:14:24.235Z,29.60
2019-05-07T20:16:56.008Z,38.83
2019-05-07T20:19:27.974Z,34.20
2019-05-07T20:21:59.016Z,36.33
2019-05-07T20:24:32.401Z,29.70
2019-05-07T20:27:03.537Z,34.20
2019-05-07T20:29:34.891Z,33.40
2019-05-07T20:32:06.086Z,26.37
2019-05-07T20:34:38.366Z,29.43
2019-05-07T20:37:12.835Z,29.90
2019-05-07T20:39:43.387Z,32.03
2019-05-07T20:42:14.590Z,32.00
2019-05-07T20:44:46.336Z,30.20
2019-05-07T20:47:17.983Z,37.43
2019-05-07T20:49:49.635Z,33.17
2019-05-07T20:52:22.972Z,32.23
2019-05-07T20:55:06.326Z,38.13
2019-05-07T20:57:40.090Z,38.83
2019-05-07T21:00:18.671Z,34.53
2019-05-07T21:03:09.198Z,35.10
2019-05-07T21:05:42.173Z,32.20
2019-05-07T21:08:13.844Z,30.40
2019-05-07T21:10:44.881Z,33.83
2019-05-07T21:13:27.500Z,34.47
2019-05-07T21:15:49.151Z,33.17
2019-05-07T21:18:22.954Z,32.17
2019-05-07T21:20:53.998Z,31.97
2019-05-07T21:23:25.139Z,38.13
2019-05-07T21:25:56.258Z,33.97
2019-05-07T21:28:27.427Z,32.37
2019-05-07T21:31:02.758Z,34.47
2019-05-07T21:33:33.854Z,31.00
2019-05-07T21:36:05.053Z,32.80
2019-05-07T21:38:36.420Z,35.63
2019-05-07T21:41:07.457Z,36.93
2019-05-07T21:43:38.536Z,30.70
2019-05-07T21:46:09.756Z,26.73
2019-05-07T21:48:40.893Z,43.10
2019-05-07T21:51:12.384Z,31.20
2019-05-07T21:53:54.341Z,26.30
2019-05-07T21:56:49.054Z,24.93
2019-05-07T21:59:22.322Z,30.20
2019-05-07T22:02:02.067Z,28.50
2019-05-07T22:04:32.660Z,29.90
2019-05-07T22:07:03.820Z,28.90
2019-05-07T22:09:34.701Z,30.57
2019-05-07T22:12:06.438Z,32.07
2019-05-07T22:14:38.160Z,33.00
2019-05-07T22:17:09.540Z,35.93
2019-05-07T22:19:42.642Z,29.67
2019-05-07T22:22:13.422Z,34.83
2019-05-07T22:24:44.366Z,32.83
2019-05-07T22:27:16.522Z,34.13
2019-05-07T22:29:52.736Z,38.90
2019-05-07T22:32:34.480Z,41.97
2019-05-07T22:35:24.626Z,37.80
2019-05-07T22:38:06.045Z,45.60
2019-05-07T22:40:43.398Z,43.17
2019-05-07T22:43:14.987Z,39.90
2019-05-07T22:45:47.692Z,45.00
2019-05-07T22:48:19.008Z,41.63
2019-05-07T22:50:51.922Z,41.67
2019-05-07T22:53:23.041Z,40.87
2019-05-07T22:55:53.988Z,39.90
2019-05-07T22:58:42.001Z,39.73
2019-05-07T23:01:13.378Z,43.47
2019-05-07T23:03:44.375Z,37.33
2019-05-07T23:06:15.500Z,41.77
2019-05-07T23:08:46.632Z,40.53
2019-05-07T23:11:17.786Z,41.77
2019-05-07T23:13:49.131Z,43.13
2019-05-07T23:16:20.259Z,38.17
2019-05-07T23:18:51.539Z,45.03
2019-05-07T23:21:24.670Z,42.63
2019-05-07T23:23:55.735Z,44.30
2019-05-07T23:26:26.882Z,44.33
2019-05-07T23:28:58.201Z,38.87
2019-05-07T23:31:29.474Z,41.07
2019-05-07T23:34:01.891Z,40.67
2019-05-07T23:36:33.006Z,36.87
2019-05-07T23:39:06.047Z,41.10
2019-05-07T23:41:56.187Z,38.00
2019-05-07T23:44:27.257Z,43.30
2019-05-07T23:46:58.465Z,38.07
2019-05-07T23:49:29.551Z,37.97
2019-05-07T23:52:02.385Z,42.53
2019-05-07T23:54:33.945Z,42.10
2019-05-07T23:57:09.501Z,41.40
2019-05-07T23:59:37.848Z,36.90
